^^
Grace C. Lehan Memorial Weather Station Historical Data
Daily Summary for August 05, 2022 Units:  Metric    English   Both
Daily Weekly Monthly Yearly
  High: Low: Average:
Temperature: 35 °C 23.8 °C 28.7 °C
Dew Point: 24.4 °C 20.8 °C 22.6 °C
Humidity: 87% 51.3% 71%
Wind Speed: 3.9km/h 0km/h 0.2km/h
Wind Gust: 11.3km/h - -
Wind- - West
Pressure: 1019.5 hPa 1015.5 hPa -
Precipitation: 0 mm    
 
 
Tabular Data for August 05, 2022
Time Temperature Dew Point Pressure Wind Wind Speed Wind Gust Humidity Rainfall Rate (Hourly) solar
00:09 26.6 °C 22.1 °C 1016.1 hPa Calm     76.4% 0 mm 0 W/m2
00:14 26.4 °C 22.1 °C 1015.8 hPa Calm     77% 0 mm 0 W/m2
00:19 26.4 °C 22.1 °C 1015.8 hPa Calm     77% 0 mm 0 W/m2
00:24 26.3 °C 22.2 °C 1015.8 hPa Calm     78% 0 mm 0 W/m2
00:29 26.3 °C 22.2 °C 1015.8 hPa Calm     78% 0 mm 0 W/m2
00:34 26.2 °C 22.1 °C 1015.8 hPa Calm     78% 0 mm 0 W/m2
00:39 26.2 °C 22.2 °C 1015.8 hPa Calm     78.7% 0 mm 0 W/m2
00:44 26.1 °C 22.2 °C 1015.8 hPa Calm     79% 0 mm 0 W/m2
00:49 26.1 °C 22.1 °C 1015.8 hPa Calm     79% 0 mm 0 W/m2
00:54 25.9 °C 22.1 °C 1015.8 hPa Calm     79% 0 mm 0 W/m2
00:59 25.9 °C 22 °C 1015.8 hPa Calm     79.2% 0 mm 0 W/m2
01:04 25.8 °C 22.1 °C 1015.8 hPa Calm     80% 0 mm 0 W/m2
01:09 25.7 °C 22 °C 1015.8 hPa Calm     80% 0 mm 0 W/m2
01:14 25.7 °C 22 °C 1015.8 hPa Calm     80.3% 0 mm 0 W/m2
01:19 25.6 °C 22.1 °C 1015.5 hPa Calm     81% 0 mm 0 W/m2
01:24 25.5 °C 22 °C 1015.8 hPa Calm     81.1% 0 mm 0 W/m2
01:29 25.4 °C 22.1 °C 1015.8 hPa Calm     82% 0 mm 0 W/m2
01:34 25.3 °C 22.1 °C 1015.8 hPa Calm     82% 0 mm 0 W/m2
01:39 25.3 °C 22 °C 1015.8 hPa Calm     82% 0 mm 0 W/m2
01:44 25.2 °C 22.1 °C 1015.8 hPa Calm     82.9% 0 mm 0 W/m2
01:49 25.2 °C 22.1 °C 1015.8 hPa Calm     83% 0 mm 0 W/m2
01:54 25.1 °C 22 °C 1015.5 hPa Calm     83% 0 mm 0 W/m2
01:59 25 °C 22 °C 1015.8 hPa Calm     83.4% 0 mm 0 W/m2
02:04 24.9 °C 22.1 °C 1015.5 hPa Calm     84% 0 mm 0 W/m2
02:09 24.9 °C 22 °C 1015.5 hPa Calm     84% 0 mm 0 W/m2
02:14 24.8 °C 21.9 °C 1015.5 hPa Calm     84% 0 mm 0 W/m2
02:19 24.8 °C 21.9 °C 1015.5 hPa Calm     84.3% 0 mm 0 W/m2
02:24 24.7 °C 22.1 °C 1015.5 hPa Calm     85% 0 mm 0 W/m2
02:29 24.7 °C 21.9 °C 1015.5 hPa Calm     85% 0 mm 0 W/m2
02:34 24.6 °C 21.9 °C 1015.5 hPa Calm     85% 0 mm 0 W/m2
02:39 24.6 °C 21.8 °C 1015.5 hPa Calm     85% 0 mm 0 W/m2
02:44 24.4 °C 21.8 °C 1015.5 hPa Calm     85% 0 mm 0 W/m2
02:49 24.4 °C 21.7 °C 1015.5 hPa Calm     85% 0 mm 0 W/m2
02:54 24.4 °C 21.8 °C 1015.5 hPa Calm     85.8% 0 mm 0 W/m2
02:59 24.3 °C 21.9 °C 1015.5 hPa Calm     86.3% 0 mm 0 W/m2
03:04 24.3 °C 22 °C 1015.5 hPa Calm     87% 0 mm 0 W/m2
03:09 24.3 °C 21.9 °C 1015.5 hPa Calm     87% 0 mm 0 W/m2
03:14 24.2 °C 21.9 °C 1015.5 hPa Calm     87% 0 mm 0 W/m2
03:19 24.2 °C 21.8 °C 1015.5 hPa Calm     87% 0 mm 0 W/m2
03:24 24.1 °C 21.8 °C 1015.8 hPa Calm     87% 0 mm 0 W/m2
03:29 24.1 °C 21.8 °C 1015.8 hPa Calm     87% 0 mm 0 W/m2
03:34 24.1 °C 21.8 °C 1015.8 hPa Calm     87% 0 mm 0 W/m2
03:39 24.1 °C 21.8 °C 1015.8 hPa Calm     87% 0 mm 0 W/m2
03:44 24 °C 21.7 °C 1015.8 hPa Calm     87% 0 mm 0 W/m2
03:49 24 °C 21.7 °C 1015.8 hPa Calm     87% 0 mm 0 W/m2
03:54 24 °C 21.7 °C 1015.8 hPa Calm     87% 0 mm 0 W/m2
03:59 24 °C 21.7 °C 1015.8 hPa Calm     87% 0 mm 0 W/m2
04:14 24 °C 21.7 °C 1015.8 hPa Calm     87% 0 mm 0 W/m2
04:19 24 °C 21.7 °C 1015.8 hPa Calm     87% 0 mm 0 W/m2
04:24 23.9 °C 21.7 °C 1015.8 hPa Calm     87% 0 mm 0 W/m2
04:29 23.9 °C 21.7 °C 1016.1 hPa Calm     87% 0 mm 0 W/m2
04:34 23.9 °C 21.7 °C 1016.1 hPa Calm     87% 0 mm 0 W/m2
04:39 23.9 °C 21.6 °C 1016.1 hPa Calm     86.5% 0 mm 0 W/m2
04:44 23.9 °C 21.4 °C 1016.1 hPa Calm     86% 0 mm 0 W/m2
04:49 23.9 °C 21.4 °C 1016.1 hPa Calm     86% 0 mm 0 W/m2
04:54 23.9 °C 21.4 °C 1016.1 hPa Calm     86% 0 mm 0 W/m2
04:59 23.9 °C 21.4 °C 1016.1 hPa Calm     86% 0 mm 0 W/m2
05:04 23.9 °C 21.4 °C 1016.1 hPa Calm     86% 0 mm 0 W/m2
05:09 23.9 °C 21.4 °C 1016.1 hPa Calm     86% 0 mm 0 W/m2
05:14 23.9 °C 21.4 °C 1016.1 hPa Calm     85.9% 0 mm 0 W/m2
05:19 23.9 °C 21.3 °C 1016.1 hPa Calm     85.2% 0 mm 0 W/m2
05:24 23.9 °C 21.2 °C 1016.5 hPa Calm     85% 0 mm 0 W/m2
05:29 23.9 °C 21.2 °C 1016.5 hPa Calm     85% 0 mm 0 W/m2
05:34 23.9 °C 21.2 °C 1016.5 hPa Calm     85% 0 mm 0 W/m2
05:39 23.8 °C 21.1 °C 1016.5 hPa Calm     84.7% 0 mm 0 W/m2
05:44 23.8 °C 21.1 °C 1016.8 hPa Calm     84.3% 0 mm 0 W/m2
05:49 23.8 °C 20.9 °C 1016.8 hPa Calm     84% 0 mm 0 W/m2
05:54 23.8 °C 20.8 °C 1016.8 hPa Calm     83.2% 0 mm 0 W/m2
05:59 23.8 °C 20.8 °C 1016.8 hPa Calm     83% 0 mm 7 W/m2
06:04 23.9 °C 20.8 °C 1016.8 hPa Calm     83% 0 mm 11 W/m2
06:09 23.9 °C 20.8 °C 1016.8 hPa Calm     83% 0 mm 16 W/m2
06:14 23.9 °C 20.9 °C 1017.2 hPa Calm     83.7% 0 mm 18 W/m2
06:19 23.9 °C 21.1 °C 1017.2 hPa Calm     84% 0 mm 19 W/m2
06:24 23.9 °C 21.1 °C 1017.2 hPa Calm     84.1% 0 mm 25 W/m2
06:29 23.9 °C 21.2 °C 1017.5 hPa Calm     84.9% 0 mm 32 W/m2
06:34 23.9 °C 21 °C 1017.5 hPa Calm     84% 0 mm 40 W/m2
06:39 23.8 °C 20.9 °C 1017.5 hPa Calm     84% 0 mm 47 W/m2
06:44 23.8 °C 20.9 °C 1017.5 hPa Calm     84% 0 mm 63 W/m2
06:49 23.9 °C 21 °C 1017.5 hPa Calm     84% 0 mm 77 W/m2
06:54 24 °C 20.9 °C 1017.5 hPa Calm     83.2% 0 mm 70 W/m2
06:59 24.2 °C 21.1 °C 1017.5 hPa Calm     83% 0 mm 91 W/m2
07:04 24.4 °C 21.3 °C 1017.5 hPa Calm     82.6% 0 mm 88 W/m2
07:09 24.6 °C 21.3 °C 1017.5 hPa Calm     81.6% 0 mm 62 W/m2
07:14 24.8 °C 21.1 °C 1017.5 hPa Calm     80.3% 0 mm 65 W/m2
07:19 24.8 °C 21.1 °C 1017.5 hPa Calm     79.8% 0 mm 65 W/m2
07:24 24.9 °C 21.1 °C 1017.5 hPa Calm     79% 0 mm 72 W/m2
07:29 25 °C 21.1 °C 1017.5 hPa Calm     79% 0 mm 72 W/m2
07:34 25.1 °C 21.2 °C 1017.5 hPa Calm     79% 0 mm 83 W/m2
07:39 25.2 °C 21.4 °C 1017.5 hPa Calm     79.6% 0 mm 95 W/m2
07:44 25.3 °C 21.7 °C 1017.5 hPa Calm     80.6% 0 mm 97 W/m2
07:49 25.3 °C 21.6 °C 1017.5 hPa Calm     79.8% 0 mm 95 W/m2
07:54 25.3 °C 21.4 °C 1017.8 hPa Calm     78.7% 0 mm 95 W/m2
07:59 25.4 °C 21.3 °C 1017.8 hPa Calm     78% 0 mm 91 W/m2
08:00 25.4 °C 21.3 °C 1017.8 hPa Calm     78% 0 mm 88 W/m2
08:09 25.5 °C 21.4 °C 1017.8 hPa Calm     78% 0 mm 102 W/m2
08:14 25.6 °C 21.5 °C 1017.8 hPa Calm     78% 0 mm 111 W/m2
08:19 25.7 °C 21.6 °C 1017.8 hPa Calm     78% 0 mm 120 W/m2
08:24 25.8 °C 21.5 °C 1018.2 hPa Calm     77.3% 0 mm 128 W/m2
08:29 25.9 °C 21.6 °C 1017.8 hPa Calm     77.1% 0 mm 128 W/m2
08:34 26 °C 21.7 °C 1018.2 hPa Calm     77.4% 0 mm 127 W/m2
08:39 26.2 °C 22 °C 1018.2 hPa Calm     78% 0 mm 123 W/m2
08:44 26.3 °C 22.1 °C 1018.2 hPa Calm     77.9% 0 mm 111 W/m2
08:49 26.3 °C 22 °C 1018.2 hPa Calm     77% 0 mm 113 W/m2
08:54 26.4 °C 21.9 °C 1018.2 hPa Calm     76.3% 0 mm 120 W/m2
08:59 26.5 °C 21.9 °C 1018.2 hPa Calm     76% 0 mm 127 W/m2
09:04 26.6 °C 21.8 °C 1018.2 hPa Calm     75% 0 mm 144 W/m2
09:09 26.6 °C 22 °C 1018.2 hPa Calm     75.8% 0 mm 172 W/m2
09:14 26.8 °C 22.1 °C 1018.5 hPa Calm     75.7% 0 mm 237 W/m2
09:19 26.8 °C 22.2 °C 1018.5 hPa Calm     75.4% 0 mm 295 W/m2
09:24 27 °C 22.2 °C 1018.5 hPa Calm     74.9% 0 mm 408 W/m2
09:29 27.2 °C 22.1 °C 1018.5 hPa Calm     73.8% 0 mm 339 W/m2
09:34 27.4 °C 22.1 °C 1018.5 hPa Calm     72.9% 0 mm 316 W/m2
09:39 27.6 °C 21.9 °C 1018.5 hPa Calm     71.2% 0 mm 246 W/m2
09:44 27.8 °C 22.3 °C 1018.5 hPa Calm     72% 0 mm 171 W/m2
09:49 28 °C 22.2 °C 1018.5 hPa Calm     70.5% 0 mm 142 W/m2
09:54 28.1 °C 22.1 °C 1018.5 hPa Calm     70% 0 mm 148 W/m2
09:59 28.2 °C 22.2 °C 1018.5 hPa Calm     69.9% 0 mm 171 W/m2
10:04 28.2 °C 22.4 °C 1018.5 hPa Calm     70.4% 0 mm 185 W/m2
10:09 28.3 °C 22.3 °C 1018.5 hPa Calm     70% 0 mm 204 W/m2
10:14 28.3 °C 22.4 °C 1018.5 hPa Calm     70.3% 0 mm 232 W/m2
10:19 28.4 °C 22.4 °C 1018.5 hPa Calm     70.3% 0 mm 241 W/m2
10:24 28.4 °C 22.4 °C 1018.8 hPa Calm     70% 0 mm 253 W/m2
10:29 28.6 °C 22.7 °C 1018.8 hPa Calm     70.8% 0 mm 258 W/m2
10:34 28.7 °C 22.9 °C 1018.8 hPa Calm     71% 0 mm 264 W/m2
10:39 28.7 °C 22.9 °C 1018.8 hPa Calm     70.7% 0 mm 278 W/m2
10:44 28.8 °C 23.1 °C 1018.8 hPa Calm     71.1% 0 mm 295 W/m2
10:49 28.9 °C 23.2 °C 1018.8 hPa Calm   4.8 km/h 71.1% 0 mm 311 W/m2
10:54 29.1 °C 23 °C 1018.8 hPa Calm   4.8 km/h 69.8% 0 mm 308 W/m2
10:59 29.1 °C 23 °C 1018.8 hPa Calm   4.8 km/h 69.5% 0 mm 378 W/m2
11:04 29.3 °C 23.5 °C 1018.8 hPa Calm   4.8 km/h 71% 0 mm 425 W/m2
11:09 29.6 °C 23.4 °C 1018.8 hPa Calm   1.6 km/h 69.6% 0 mm 701 W/m2
11:14 29.7 °C 22.9 °C 1018.8 hPa Calm   1.6 km/h 66.8% 0 mm 631 W/m2
11:19 29.9 °C 22.9 °C 1018.8 hPa Calm   1.6 km/h 66.3% 0 mm 689 W/m2
11:24 30.2 °C 23.3 °C 1018.8 hPa Calm   1.6 km/h 66.5% 0 mm 803 W/m2
11:29 30.6 °C 23.3 °C 1018.8 hPa Calm   1.6 km/h 65% 0 mm 798 W/m2
11:34 30.9 °C 23.4 °C 1018.8 hPa Calm   1.6 km/h 64.3% 0 mm 930 W/m2
11:39 31.4 °C 23.7 °C 1018.8 hPa SW 0.2 km/h 1.6 km/h 63.8% 0 mm 926 W/m2
11:44 31.9 °C 23.9 °C 1018.8 hPa Calm   1.6 km/h 62.9% 0 mm 921 W/m2
11:49 32.4 °C 23.9 °C 1018.8 hPa Calm   1.6 km/h 61% 0 mm 802 W/m2
11:54 32.5 °C 23.2 °C 1018.8 hPa Calm   1.6 km/h 58.3% 0 mm 837 W/m2
11:59 32.4 °C 23.1 °C 1018.8 hPa SW 0.5 km/h 4.8 km/h 58.1% 0 mm 737 W/m2
12:00 32.3 °C 22.4 °C 1018.5 hPa Calm   4.8 km/h 56% 0 mm 587 W/m2
12:09 32.1 °C 22.6 °C 1018.5 hPa Calm     57.4% 0 mm 401 W/m2
12:14 32 °C 22.9 °C 1018.8 hPa Calm     58.8% 0 mm 766 W/m2
12:19 32 °C 22.9 °C 1018.5 hPa Calm     59% 0 mm 889 W/m2
12:24 32.1 °C 22.9 °C 1018.5 hPa Calm   1.6 km/h 58.6% 0 mm 977 W/m2
12:29 32.4 °C 23.3 °C 1018.5 hPa Calm   1.6 km/h 58.9% 0 mm 997 W/m2
12:34 32.7 °C 23.1 °C 1018.5 hPa SW 0.2 km/h 3.2 km/h 57.4% 0 mm 997 W/m2
12:39 32.8 °C 22.9 °C 1018.5 hPa Calm   3.2 km/h 56.2% 0 mm 805 W/m2
12:44 32.9 °C 23.1 °C 1018.5 hPa Calm   3.2 km/h 56.4% 0 mm 812 W/m2
12:49 33.1 °C 23.1 °C 1018.5 hPa SW 0.2 km/h 3.2 km/h 55.8% 0 mm 735 W/m2
12:54 33.2 °C 23.2 °C 1018.5 hPa Calm   3.2 km/h 55.8% 0 mm 747 W/m2
12:59 33.3 °C 23.1 °C 1018.5 hPa Calm   3.2 km/h 55% 0 mm 628 W/m2
13:04 33.4 °C 22.9 °C 1018.5 hPa Calm   3.2 km/h 54.1% 0 mm 675 W/m2
13:09 33.4 °C 23 °C 1018.5 hPa Calm     54.4% 0 mm 675 W/m2
13:14 33.5 °C 22.9 °C 1018.5 hPa SW 0.6 km/h 6.4 km/h 54.2% 0 mm 432 W/m2
13:19 33.4 °C 22.4 °C 1018.5 hPa Calm   6.4 km/h 52.5% 0 mm 403 W/m2
13:24 33.4 °C 22.5 °C 1018.5 hPa Calm   6.4 km/h 52.9% 0 mm 353 W/m2
13:29 33.4 °C 23.1 °C 1018.5 hPa WSW 1.9 km/h 8 km/h 55% 0 mm 380 W/m2
13:34 33.4 °C 23.3 °C 1018.5 hPa Calm   8 km/h 55.5% 0 mm 318 W/m2
13:39 33.5 °C 23.1 °C 1018.5 hPa WSW 0.2 km/h 3.2 km/h 54.5% 0 mm 281 W/m2
13:44 33.6 °C 23.1 °C 1018.5 hPa WSW 0.8 km/h 6.4 km/h 54.5% 0 mm 265 W/m2
13:49 33.6 °C 23 °C 1018.5 hPa Calm   6.4 km/h 54.1% 0 mm 243 W/m2
13:54 33.6 °C 23.3 °C 1018.5 hPa Calm   6.4 km/h 55.3% 0 mm 258 W/m2
13:59 33.5 °C 23.4 °C 1018.5 hPa West 1.1 km/h 11.3 km/h 55.7% 0 mm 272 W/m2
14:04 33.5 °C 23.5 °C 1018.5 hPa West 0.5 km/h 11.3 km/h 55.9% 0 mm 274 W/m2
14:09 33.4 °C 23.2 °C 1018.2 hPa West 1.8 km/h 8 km/h 54.9% 0 mm 262 W/m2
14:14 33.3 °C 23.1 °C 1018.2 hPa West 0.2 km/h 8 km/h 55% 0 mm 239 W/m2
14:19 33.2 °C 23.5 °C 1018.2 hPa West 2.1 km/h 9.7 km/h 56.9% 0 mm 244 W/m2
14:24 33 °C 23.7 °C 1018.2 hPa Calm   9.7 km/h 58.3% 0 mm 673 W/m2
14:29 32.9 °C 24.4 °C 1018.2 hPa Calm   9.7 km/h 61% 0 mm 684 W/m2
14:34 33 °C 24.3 °C 1018.2 hPa West 0.5 km/h 9.7 km/h 60.3% 0 mm 619 W/m2
14:39 33.2 °C 23.4 °C 1018.2 hPa West 0.2 km/h 6.4 km/h 56.3% 0 mm 137 W/m2
14:44 33.5 °C 23.3 °C 1017.8 hPa West 1 km/h 9.7 km/h 55.5% 0 mm 130 W/m2
14:49 33.7 °C 23.1 °C 1017.8 hPa West 0.6 km/h 9.7 km/h 54% 0 mm 84 W/m2
14:54 33.9 °C 23.2 °C 1017.8 hPa West 0.2 km/h 9.7 km/h 53.8% 0 mm 84 W/m2
14:59 34.1 °C 22.8 °C 1017.8 hPa West 0.2 km/h 9.7 km/h 52.1% 0 mm 107 W/m2
15:04 34.2 °C 23.1 °C 1017.8 hPa Calm   9.7 km/h 52.7% 0 mm 128 W/m2
15:09 34.2 °C 23.1 °C 1017.5 hPa West 0.8 km/h 4.8 km/h 52.4% 0 mm 132 W/m2
15:14 34.3 °C 23.5 °C 1017.5 hPa West 1.6 km/h 11.3 km/h 53.5% 0 mm 141 W/m2
15:19 34.5 °C 23.7 °C 1017.5 hPa WSW 2.3 km/h 11.3 km/h 53.6% 0 mm 221 W/m2
15:24 34.8 °C 23.6 °C 1017.5 hPa WSW 1 km/h 11.3 km/h 52.2% 0 mm 137 W/m2
15:29 35 °C 23.6 °C 1017.5 hPa WSW 0.8 km/h 11.3 km/h 51.6% 0 mm 139 W/m2
15:34 34.9 °C 23.5 °C 1017.5 hPa Calm   11.3 km/h 51.5% 0 mm 144 W/m2
15:39 34.8 °C 23.3 °C 1017.5 hPa Calm   1.6 km/h 51.3% 0 mm 144 W/m2
15:44 34.6 °C 23.2 °C 1017.5 hPa Calm   3.2 km/h 51.7% 0 mm 135 W/m2
15:49 34.3 °C 23.2 °C 1017.5 hPa Calm   3.2 km/h 52.4% 0 mm 139 W/m2
15:54 34.1 °C 23.3 °C 1017.2 hPa WSW 0.2 km/h 3.2 km/h 53.5% 0 mm 139 W/m2
15:59 33.9 °C 22.9 °C 1017.2 hPa Calm   3.2 km/h 52.8% 0 mm 130 W/m2
16:09 33.6 °C 23.1 °C 1017.2 hPa Calm     54.1% 0 mm 139 W/m2
16:14 33.6 °C 23.2 °C 1017.5 hPa Calm     54.8% 0 mm 148 W/m2
16:19 33.5 °C 23.5 °C 1017.2 hPa WSW 0.3 km/h 8 km/h 56% 0 mm 151 W/m2
16:24 33.6 °C 23.6 °C 1017.2 hPa WSW 1.1 km/h 8 km/h 56% 0 mm 141 W/m2
16:29 33.6 °C 23.6 °C 1017.5 hPa WSW 0.5 km/h 8 km/h 55.8% 0 mm 120 W/m2
16:34 33.7 °C 23.6 °C 1017.5 hPa West 1 km/h 8 km/h 55.4% 0 mm 97 W/m2
16:39 33.8 °C 23.3 °C 1017.5 hPa West 1.4 km/h 8 km/h 54.1% 0 mm 81 W/m2
16:44 33.9 °C 23.4 °C 1017.5 hPa West 0.3 km/h 8 km/h 54.3% 0 mm 69 W/m2
16:49 33.9 °C 23.4 °C 1017.5 hPa West 1 km/h 8 km/h 54.4% 0 mm 62 W/m2
16:54 33.9 °C 23.4 °C 1017.5 hPa West 1 km/h 9.7 km/h 54.3% 0 mm 58 W/m2
16:59 33.9 °C 23.2 °C 1017.5 hPa West 1.1 km/h 9.7 km/h 53.6% 0 mm 58 W/m2
17:04 34 °C 23.2 °C 1017.5 hPa West 3.9 km/h 11.3 km/h 53.5% 0 mm 63 W/m2
17:09 34.1 °C 23.4 °C 1017.5 hPa WNW 1.6 km/h 11.3 km/h 53.9% 0 mm 84 W/m2
17:14 34.1 °C 23.2 °C 1017.5 hPa West 1 km/h 11.3 km/h 53.2% 0 mm 84 W/m2
17:19 34 °C 23.4 °C 1017.5 hPa West 1 km/h 11.3 km/h 53.9% 0 mm 83 W/m2
17:24 33.9 °C 23.2 °C 1017.5 hPa West 0.6 km/h 11.3 km/h 53.6% 0 mm 83 W/m2
17:29 33.8 °C 23.1 °C 1017.8 hPa West 0.6 km/h 11.3 km/h 53.7% 0 mm 74 W/m2
17:34 33.7 °C 23.2 °C 1017.8 hPa West 0.3 km/h 11.3 km/h 54.3% 0 mm 77 W/m2
17:39 33.6 °C 23.2 °C 1017.5 hPa West 0.3 km/h 6.4 km/h 54.7% 0 mm 77 W/m2
17:44 33.4 °C 23.3 °C 1017.8 hPa Calm   6.4 km/h 55.6% 0 mm 74 W/m2
17:49 33.3 °C 23.3 °C 1017.8 hPa Calm   6.4 km/h 56% 0 mm 72 W/m2
17:54 33.2 °C 23.2 °C 1017.8 hPa West 0.2 km/h 6.4 km/h 56% 0 mm 70 W/m2
17:59 32.9 °C 23.2 °C 1017.8 hPa Calm   6.4 km/h 56.7% 0 mm 69 W/m2
18:04 32.8 °C 23.3 °C 1017.5 hPa West 0.3 km/h 6.4 km/h 57.3% 0 mm 67 W/m2
18:09 32.7 °C 23.3 °C 1017.5 hPa West 0.2 km/h 6.4 km/h 57.6% 0 mm 70 W/m2
18:14 32.6 °C 23.3 °C 1017.5 hPa West 0.2 km/h 6.4 km/h 58% 0 mm 72 W/m2
18:19 32.4 °C 23.2 °C 1017.5 hPa Calm   6.4 km/h 58% 0 mm 74 W/m2
18:24 32.3 °C 23.3 °C 1017.5 hPa Calm   6.4 km/h 59% 0 mm 72 W/m2
18:29 32.1 °C 23.2 °C 1017.5 hPa Calm   6.4 km/h 59.4% 0 mm 70 W/m2
18:34 32 °C 23.2 °C 1017.8 hPa Calm   6.4 km/h 59.9% 0 mm 69 W/m2
18:39 31.9 °C 23.2 °C 1017.8 hPa West 0.2 km/h 3.2 km/h 60.2% 0 mm 69 W/m2
18:44 31.8 °C 23.5 °C 1017.8 hPa Calm   3.2 km/h 61.4% 0 mm 65 W/m2
18:49 31.8 °C 23.6 °C 1017.8 hPa West 0.3 km/h 4.8 km/h 62% 0 mm 60 W/m2
18:54 31.7 °C 23.6 °C 1017.8 hPa Calm   4.8 km/h 62.1% 0 mm 54 W/m2
18:59 31.6 °C 23.7 °C 1017.8 hPa Calm   4.8 km/h 63% 0 mm 47 W/m2
19:04 31.4 °C 23.6 °C 1017.8 hPa Calm   4.8 km/h 63% 0 mm 40 W/m2
19:09 31.3 °C 23.6 °C 1017.8 hPa Calm   1.6 km/h 63.4% 0 mm 32 W/m2
19:14 31.2 °C 23.6 °C 1017.8 hPa Calm   1.6 km/h 64% 0 mm 26 W/m2
19:19 31.1 °C 23.5 °C 1018.2 hPa West 0.3 km/h 6.4 km/h 64.3% 0 mm 21 W/m2
19:24 30.9 °C 23.6 °C 1018.2 hPa Calm   6.4 km/h 65% 0 mm 18 W/m2
19:29 30.8 °C 23.7 °C 1018.5 hPa Calm   6.4 km/h 66% 0 mm 14 W/m2
19:34 30.7 °C 23.6 °C 1018.5 hPa Calm   6.4 km/h 66% 0 mm 12 W/m2
19:39 30.6 °C 23.6 °C 1018.5 hPa Calm     66.4% 0 mm 9 W/m2
19:44 30.4 °C 23.6 °C 1018.5 hPa Calm     67% 0 mm 9 W/m2
19:49 30.3 °C 23.5 °C 1018.8 hPa Calm     67% 0 mm 7 W/m2
19:54 30.2 °C 23.7 °C 1018.8 hPa Calm     68% 0 mm 5 W/m2
19:59 30.2 °C 23.6 °C 1018.8 hPa Calm     68% 0 mm 0 W/m2
20:00 30.1 °C 23.6 °C 1018.8 hPa Calm     68% 0 mm 0 W/m2
20:09 30 °C 23.7 °C 1018.8 hPa Calm     69% 0 mm 0 W/m2
20:14 29.9 °C 23.6 °C 1018.8 hPa Calm     69% 0 mm 0 W/m2
20:19 29.8 °C 23.6 °C 1018.8 hPa Calm     69% 0 mm 0 W/m2
20:24 29.8 °C 23.4 °C 1018.8 hPa Calm     69% 0 mm 0 W/m2
20:29 29.7 °C 23.4 °C 1018.8 hPa Calm     69% 0 mm 0 W/m2
20:34 29.6 °C 23.3 °C 1018.8 hPa Calm     69% 0 mm 0 W/m2
20:39 29.6 °C 23.5 °C 1018.8 hPa Calm     70% 0 mm 0 W/m2
20:44 29.5 °C 23.4 °C 1018.8 hPa Calm   3.2 km/h 70% 0 mm 0 W/m2
20:49 29.4 °C 23.4 °C 1018.8 hPa Calm   3.2 km/h 70% 0 mm 0 W/m2
20:54 29.3 °C 23.3 °C 1019.2 hPa Calm   3.2 km/h 70% 0 mm 0 W/m2
20:59 29.3 °C 23.4 °C 1019.2 hPa Calm   3.2 km/h 70.7% 0 mm 0 W/m2
21:04 29.2 °C 23.4 °C 1019.2 hPa Calm   3.2 km/h 71% 0 mm 0 W/m2
21:09 29.2 °C 23.3 °C 1019.2 hPa Calm     71% 0 mm 0 W/m2
21:14 29.1 °C 23.3 °C 1019.2 hPa Calm     71.1% 0 mm 0 W/m2
21:19 29 °C 23.4 °C 1019.2 hPa Calm     72% 0 mm 0 W/m2
21:24 28.9 °C 23.4 °C 1019.2 hPa Calm     72% 0 mm 0 W/m2
21:29 28.9 °C 23.3 °C 1019.2 hPa Calm     72% 0 mm 0 W/m2
21:34 28.8 °C 23.3 °C 1019.2 hPa Calm     72% 0 mm 0 W/m2
21:39 28.8 °C 23.2 °C 1019.5 hPa Calm     72% 0 mm 0 W/m2
21:44 28.7 °C 23.3 °C 1019.5 hPa Calm     72.7% 0 mm 0 W/m2
21:49 28.6 °C 23.3 °C 1019.5 hPa Calm     73% 0 mm 0 W/m2
21:54 28.5 °C 23.2 °C 1019.5 hPa Calm     73% 0 mm 0 W/m2
21:59 28.4 °C 23.2 °C 1019.5 hPa Calm     73% 0 mm 0 W/m2
22:04 28.4 °C 23.1 °C 1019.5 hPa Calm     73% 0 mm 0 W/m2
22:09 28.3 °C 23 °C 1019.5 hPa Calm     73% 0 mm 0 W/m2
22:14 28.3 °C 22.9 °C 1019.5 hPa Calm     73% 0 mm 0 W/m2
22:19 28.2 °C 22.9 °C 1019.5 hPa Calm     73% 0 mm 0 W/m2
22:24 28.2 °C 23.1 °C 1019.5 hPa Calm     74% 0 mm 0 W/m2
22:29 28.1 °C 23 °C 1019.5 hPa Calm   1.6 km/h 74% 0 mm 0 W/m2
22:34 27.9 °C 22.9 °C 1019.5 hPa Calm   1.6 km/h 74% 0 mm 0 W/m2
22:39 27.9 °C 22.8 °C 1019.5 hPa Calm     74% 0 mm 0 W/m2
22:44 27.8 °C 22.8 °C 1019.5 hPa Calm     74% 0 mm 0 W/m2
22:49 27.7 °C 22.8 °C 1019.5 hPa Calm     74.3% 0 mm 0 W/m2
22:54 27.7 °C 22.8 °C 1019.5 hPa Calm     75% 0 mm 0 W/m2
22:59 27.6 °C 22.7 °C 1019.5 hPa Calm     75% 0 mm 0 W/m2
23:04 27.4 °C 22.7 °C 1019.5 hPa Calm     75.2% 0 mm 0 W/m2
23:09 27.4 °C 22.8 °C 1019.5 hPa Calm     76% 0 mm 0 W/m2
23:14 27.3 °C 22.7 °C 1019.5 hPa Calm     76% 0 mm 0 W/m2
23:19 27.2 °C 22.6 °C 1019.5 hPa Calm     76% 0 mm 0 W/m2
23:24 27.1 °C 22.6 °C 1019.5 hPa Calm     76% 0 mm 0 W/m2
23:29 27.1 °C 22.6 °C 1019.5 hPa Calm     76.7% 0 mm 0 W/m2
23:34 26.9 °C 22.6 °C 1019.5 hPa Calm     76.9% 0 mm 0 W/m2
23:39 26.9 °C 22.5 °C 1019.5 hPa Calm     77% 0 mm 0 W/m2
23:44 26.8 °C 22.5 °C 1019.5 hPa Calm     77.4% 0 mm 0 W/m2
23:49 26.7 °C 22.6 °C 1019.5 hPa Calm     78% 0 mm 0 W/m2
23:54 26.7 °C 22.5 °C 1019.5 hPa Calm     78% 0 mm 0 W/m2
23:59 26.6 °C 22.5 °C 1019.5 hPa Calm     78.3% 0 mm 0 W/m2
Hartford County Weather
Compliments of Weather Underground - 4 mb